createdAt,value
2022-10-05T00:04:00.261Z,4
2022-10-05T00:09:12.493Z,3
2022-10-05T00:14:24.516Z,4
2022-10-05T00:19:36.504Z,3
2022-10-05T00:24:48.485Z,3
2022-10-05T00:30:00.583Z,3
2022-10-05T00:35:12.655Z,3
2022-10-05T00:40:25.061Z,3
2022-10-05T00:45:37.522Z,3
2022-10-05T00:50:49.292Z,4
2022-10-05T00:56:01.323Z,3
2022-10-05T01:01:13.670Z,3
2022-10-05T01:06:25.818Z,3
2022-10-05T01:11:37.556Z,3
2022-10-05T01:16:52.000Z,3
2022-10-05T01:22:03.496Z,3
2022-10-05T01:27:15.528Z,3
2022-10-05T01:32:27.341Z,3
2022-10-05T01:37:39.005Z,3
2022-10-05T01:42:51.036Z,3
2022-10-05T01:48:03.004Z,4
2022-10-05T01:53:14.713Z,3
2022-10-05T01:58:26.708Z,4
2022-10-05T02:03:38.808Z,3
2022-10-05T02:08:50.598Z,3
2022-10-05T02:14:02.637Z,3
2022-10-05T02:19:14.735Z,3
2022-10-05T02:24:26.637Z,3
2022-10-05T02:29:38.508Z,3
2022-10-05T02:34:50.440Z,3
2022-10-05T02:40:02.266Z,4
2022-10-05T02:45:14.332Z,3
2022-10-05T02:50:26.983Z,3
2022-10-05T02:55:38.675Z,3
2022-10-05T03:00:51.003Z,3
2022-10-05T03:06:02.883Z,3
2022-10-05T03:11:14.645Z,3
2022-10-05T03:16:27.036Z,3
2022-10-05T03:21:38.854Z,3
2022-10-05T03:26:50.917Z,3
2022-10-05T03:32:03.092Z,3
2022-10-05T03:37:15.090Z,3
2022-10-05T03:42:27.279Z,3
2022-10-05T03:47:39.124Z,5
2022-10-05T03:52:52.743Z,4
2022-10-05T03:58:04.114Z,3
2022-10-05T04:03:16.173Z,3
2022-10-05T04:08:27.949Z,3
2022-10-05T04:18:51.834Z,4
2022-10-05T04:24:03.644Z,4
2022-10-05T04:29:15.293Z,4
2022-10-05T04:34:27.373Z,4
2022-10-05T04:39:39.190Z,4
2022-10-05T04:44:50.990Z,4
2022-10-05T04:50:04.303Z,4
2022-10-05T04:55:16.117Z,4
2022-10-05T05:00:27.963Z,4
2022-10-05T05:06:18.713Z,4
2022-10-05T05:11:25.832Z,4
2022-10-05T05:16:37.947Z,4
2022-10-05T05:21:49.963Z,4
2022-10-05T05:27:02.004Z,4
2022-10-05T05:32:13.911Z,6
2022-10-05T05:37:25.885Z,5
2022-10-05T05:42:37.739Z,4
2022-10-05T05:47:49.890Z,4
2022-10-05T05:53:01.998Z,4
2022-10-05T05:58:13.888Z,4
2022-10-05T06:03:26.760Z,4
2022-10-05T06:08:38.441Z,4
2022-10-05T06:13:50.372Z,4
2022-10-05T06:19:02.511Z,4
2022-10-05T06:24:14.579Z,4
2022-10-05T06:29:26.538Z,4
2022-10-05T06:34:38.580Z,4
2022-10-05T06:39:50.503Z,3
2022-10-05T06:45:02.571Z,3
2022-10-05T06:50:14.820Z,3
2022-10-05T06:55:27.093Z,3
2022-10-05T07:00:39.300Z,3
2022-10-05T07:05:51.451Z,3
2022-10-05T07:11:04.673Z,3
2022-10-05T07:16:16.592Z,2
2022-10-05T07:21:28.643Z,2
2022-10-05T07:26:40.828Z,2
2022-10-05T07:31:52.780Z,2
2022-10-05T07:37:04.992Z,1
2022-10-05T07:42:17.282Z,0
2022-10-05T07:47:29.330Z,0
2022-10-05T07:52:49.561Z,0
2022-10-05T07:58:05.652Z,1
2022-10-05T08:03:18.297Z,1
2022-10-05T08:08:30.388Z,1
2022-10-05T08:13:42.701Z,2
2022-10-05T08:18:54.868Z,2
2022-10-05T08:24:07.107Z,3
2022-10-05T08:29:19.432Z,3
2022-10-05T08:34:31.727Z,3
2022-10-05T08:39:43.980Z,4
2022-10-05T08:44:56.511Z,5
2022-10-05T08:50:08.666Z,7
2022-10-05T08:55:20.978Z,7
2022-10-05T09:00:33.631Z,9
2022-10-05T09:05:46.050Z,10
2022-10-05T09:10:58.877Z,12
2022-10-05T09:16:11.422Z,13
2022-10-05T09:21:23.640Z,14
2022-10-05T09:26:36.387Z,15
2022-10-05T09:31:49.943Z,14
2022-10-05T09:37:02.119Z,15
2022-10-05T09:42:14.268Z,16
2022-10-05T09:47:26.791Z,16
2022-10-05T09:52:38.874Z,15
2022-10-05T09:57:54.078Z,15
2022-10-05T10:03:06.018Z,17
2022-10-05T10:08:18.375Z,16
2022-10-05T10:13:30.809Z,20
2022-10-05T10:18:43.130Z,19
2022-10-05T10:23:56.506Z,20
2022-10-05T10:29:08.846Z,21
2022-10-05T10:34:21.256Z,21
2022-10-05T10:39:33.545Z,24
2022-10-05T10:44:45.784Z,25
2022-10-05T10:49:58.200Z,25
2022-10-05T10:55:10.734Z,28
2022-10-05T11:00:23.970Z,28
2022-10-05T11:05:36.519Z,26
2022-10-05T11:10:49.410Z,31
2022-10-05T11:16:05.346Z,41
2022-10-05T11:21:25.169Z,76
2022-10-05T11:26:39.363Z,70
2022-10-05T11:31:54.596Z,69
2022-10-05T11:47:30.077Z,66
2022-10-05T11:52:42.838Z,68
2022-10-05T11:57:55.838Z,63
2022-10-05T12:03:08.870Z,65
2022-10-05T12:08:21.177Z,64
2022-10-05T12:18:45.238Z,61
2022-10-05T12:29:08.904Z,63
2022-10-05T12:34:21.547Z,62
2022-10-05T12:39:34.284Z,58
2022-10-05T12:49:58.853Z,61
2022-10-05T12:55:11.023Z,61
2022-10-05T13:00:24.333Z,57
2022-10-05T13:15:57.673Z,63
2022-10-05T13:21:09.993Z,61
2022-10-05T13:36:43.749Z,64
2022-10-05T14:02:36.704Z,74
2022-10-05T14:07:48.749Z,73
2022-10-05T14:18:10.922Z,76
2022-10-05T14:38:54.291Z,83
2022-10-05T14:44:06.531Z,83
2022-10-05T14:49:18.890Z,82
2022-10-05T14:54:31.374Z,81
2022-10-05T14:59:43.620Z,80
2022-10-05T15:04:58.669Z,83
2022-10-05T15:10:10.738Z,82
2022-10-05T15:20:32.690Z,83
2022-10-05T15:25:44.983Z,84
2022-10-05T15:30:57.500Z,84
2022-10-05T15:36:09.496Z,81
2022-10-05T15:46:32.487Z,85
2022-10-05T15:51:45.467Z,85
2022-10-05T15:56:57.686Z,86
2022-10-05T16:02:11.276Z,85
2022-10-05T16:07:23.690Z,86
2022-10-05T16:12:36.332Z,87
2022-10-05T16:17:48.792Z,88
2022-10-05T16:23:11.445Z,90
2022-10-05T16:28:25.894Z,90
2022-10-05T16:33:40.507Z,92
2022-10-05T16:38:55.104Z,93
2022-10-05T16:44:07.558Z,95
2022-10-05T16:49:19.975Z,97
2022-10-05T16:54:32.214Z,97
2022-10-05T16:59:44.419Z,97
2022-10-05T17:04:56.644Z,97
2022-10-05T17:10:09.036Z,95
2022-10-05T17:15:21.092Z,90
2022-10-05T17:20:33.620Z,88
2022-10-05T17:25:45.843Z,86
2022-10-05T17:30:58.589Z,85
2022-10-05T17:41:20.935Z,81
2022-10-05T17:46:33.482Z,79
2022-10-05T17:51:45.621Z,76
2022-10-05T17:56:58.042Z,76
2022-10-05T18:02:10.479Z,73
2022-10-05T18:07:22.636Z,70
2022-10-05T18:12:35.108Z,67
2022-10-05T18:17:47.257Z,66
2022-10-05T18:22:59.723Z,64
2022-10-05T18:28:12.434Z,56
2022-10-05T18:33:24.741Z,55
2022-10-05T18:38:36.886Z,54
2022-10-05T18:43:49.595Z,50
2022-10-05T18:49:02.193Z,51
2022-10-05T18:54:14.625Z,48
2022-10-05T18:59:27.310Z,41
2022-10-05T19:04:39.404Z,30
2022-10-05T19:09:51.986Z,30
2022-10-05T19:15:04.406Z,31
2022-10-05T19:20:16.903Z,29
2022-10-05T19:25:29.138Z,24
2022-10-05T19:30:41.594Z,24
2022-10-05T19:35:54.061Z,23
2022-10-05T19:41:07.070Z,22
2022-10-05T19:46:21.383Z,21
2022-10-05T19:56:45.606Z,18
2022-10-05T20:01:58.699Z,15
2022-10-05T20:07:10.810Z,14
2022-10-05T20:12:23.892Z,12
2022-10-05T20:17:36.032Z,10
2022-10-05T20:22:48.145Z,10
2022-10-05T20:28:00.687Z,10
2022-10-05T20:33:13.207Z,10
2022-10-05T20:38:27.901Z,10
2022-10-05T20:43:41.459Z,8
2022-10-05T20:48:53.734Z,9
2022-10-05T20:54:05.880Z,8
2022-10-05T20:59:18.220Z,8
2022-10-05T21:04:42.462Z,8
2022-10-05T21:09:52.395Z,7
2022-10-05T21:15:04.641Z,7
2022-10-05T21:20:16.951Z,7
2022-10-05T21:25:29.040Z,7
2022-10-05T21:30:41.948Z,6
2022-10-05T21:35:54.272Z,6
2022-10-05T21:41:06.241Z,6
2022-10-05T21:46:18.889Z,6
2022-10-05T21:51:31.346Z,6
2022-10-05T21:56:43.426Z,6
2022-10-05T22:01:55.822Z,6
2022-10-05T22:07:08.137Z,5
2022-10-05T22:12:20.929Z,5
2022-10-05T22:17:33.003Z,5
2022-10-05T22:22:45.403Z,6
2022-10-05T22:27:58.068Z,6
2022-10-05T22:33:10.373Z,6
2022-10-05T22:38:22.590Z,5
2022-10-05T22:43:34.606Z,6
2022-10-05T22:48:46.766Z,6
2022-10-05T22:53:59.359Z,5
2022-10-05T22:59:11.500Z,5
2022-10-05T23:04:23.448Z,5
2022-10-05T23:09:35.851Z,5
2022-10-05T23:14:48.067Z,5
2022-10-05T23:20:00.224Z,5
2022-10-05T23:25:12.321Z,5
2022-10-05T23:30:24.506Z,5
2022-10-05T23:35:36.743Z,5
2022-10-05T23:40:48.933Z,5
2022-10-05T23:46:01.211Z,5
2022-10-05T23:51:12.930Z,5
2022-10-05T23:56:24.904Z,5
